Time;durP1;ratioP1;P1;durP2;ratioP2;P2;SDS_P1;SDS_P2;PMS_P1;PMS_P2;Temp;Humidity;BMP_temperature;BMP_pressure;BME280_temperature;BME280_humidity;BME280_pressure;Samples;Min_cycle;Max_cycle;Signal;HPM_P1;HPM_P2
2021/06/05 00:01:19;;;;;;;13.07;6.93;;;17.90;99.90;;;18.73;68.17;101555.88;5073653;28;20733;-70
2021/06/05 00:03:46;;;;;;;12.05;6.05;;;17.90;99.90;;;18.71;68.14;101550.66;5056884;28;20203;-71
2021/06/05 00:06:17;;;;;;;13.55;6.28;;;17.90;99.90;;;18.70;67.73;101550.75;5072913;28;20215;-70
2021/06/05 00:08:44;;;;;;;12.88;6.50;;;17.90;99.90;;;18.68;68.16;101557.94;5064874;28;20234;-68
2021/06/05 00:11:10;;;;;;;12.95;6.90;;;17.80;99.90;;;18.68;68.15;101571.22;5072549;28;20204;-70
2021/06/05 00:13:41;;;;;;;13.60;6.57;;;17.80;99.90;;;18.66;68.06;101558.03;5074058;28;20188;-68
2021/06/05 00:16:12;;;;;;;13.65;6.53;;;17.80;99.90;;;18.65;68.17;101553.66;5055356;28;20204;-68
2021/06/05 00:18:38;;;;;;;11.63;6.72;;;17.80;99.90;;;18.63;67.95;101555.56;5073755;28;20226;-69
2021/06/05 00:21:06;;;;;;;13.85;6.43;;;17.80;99.90;;;18.63;68.14;101552.06;5055647;28;20200;-68
2021/06/05 00:23:34;;;;;;;14.07;5.85;;;17.80;99.90;;;18.61;68.18;101554.78;5073901;28;20189;-70
2021/06/05 00:26:01;;;;;;;13.32;6.22;;;17.80;99.90;;;18.59;68.34;101548.72;5072436;28;20996;-68
2021/06/05 00:28:27;;;;;;;13.93;6.47;;;17.80;99.90;;;18.58;68.33;101547.03;5074744;28;20195;-68
2021/06/05 00:30:54;;;;;;;14.30;6.25;;;17.70;99.90;;;18.57;68.40;101544.47;5077075;28;20216;-68
2021/06/05 00:33:22;;;;;;;11.18;5.80;;;17.70;99.90;;;18.53;68.46;101556.16;5077478;28;20241;-70
2021/06/05 00:35:48;;;;;;;12.07;6.13;;;17.70;99.90;;;18.52;68.63;101554.47;5077206;28;20389;-69
2021/06/05 00:38:16;;;;;;;13.63;6.18;;;17.70;99.90;;;18.51;68.58;101555.38;5058482;28;20198;-70
2021/06/05 00:40:52;;;;;;;11.68;6.20;;;17.70;99.90;;;18.50;68.46;101559.00;5076985;28;20192;-68
2021/06/05 00:43:26;;;;;;;12.82;5.60;;;17.60;99.90;;;18.46;68.61;101555.66;5055476;28;20287;-68
2021/06/05 00:45:53;;;;;;;11.90;6.47;;;17.60;99.90;;;18.41;68.52;101549.75;5055231;28;20243;-68
2021/06/05 00:48:22;;;;;;;11.52;5.80;;;17.60;99.90;;;18.38;68.71;101557.00;5056292;28;20177;-70
2021/06/05 00:50:55;;;;;;;11.88;6.15;;;17.60;99.90;;;18.35;68.98;101552.72;5037488;28;20686;-69
2021/06/05 00:53:28;;;;;;;12.18;5.80;;;17.60;99.90;;;18.33;68.83;101551.97;5055672;28;20641;-67
2021/06/05 00:56:00;;;;;;;12.68;6.40;;;17.50;99.90;;;18.31;68.88;101551.19;5037844;28;20299;-68
2021/06/05 00:58:29;;;;;;;12.07;5.85;;;17.50;99.90;;;18.29;68.94;101549.56;5054813;28;20231;-68
2021/06/05 01:01:00;;;;;;;11.32;5.65;;;17.50;99.90;;;18.28;69.12;101551.38;5053840;28;20196;-68
2021/06/05 01:03:39;;;;;;;14.25;5.78;;;17.50;99.90;;;18.26;68.98;101558.53;5038202;28;20197;-69
2021/06/05 01:06:17;;;;;;;12.23;6.20;;;17.50;99.90;;;18.26;69.01;101549.72;5038762;28;20238;-67
2021/06/05 01:08:55;;;;;;;10.50;5.70;;;17.50;99.90;;;18.26;68.90;101547.94;5041609;28;20546;-68
2021/06/05 01:11:33;;;;;;;13.45;6.40;;;17.50;99.90;;;18.25;68.96;101554.16;5058062;28;20250;-68
2021/06/05 01:14:08;;;;;;;12.38;6.22;;;17.40;99.90;;;18.26;69.02;101555.03;5058385;28;20208;-68
2021/06/05 01:16:39;;;;;;;11.65;6.07;;;17.40;99.90;;;18.26;68.90;101547.94;5057824;28;20302;-68
2021/06/05 01:19:16;;;;;;;10.65;5.82;;;17.40;99.90;;;18.27;69.12;101554.94;5057729;28;20282;-67
2021/06/05 01:22:01;;;;;;;11.40;5.93;;;17.40;99.90;;;18.25;68.91;101546.22;5075467;28;20219;-69
2021/06/05 01:24:48;;;;;;;12.63;6.20;;;17.40;99.90;;;18.24;69.08;101548.94;5057877;28;20735;-69
2021/06/05 01:27:26;;;;;;;11.50;5.70;;;17.40;99.90;;;18.24;69.18;101548.94;5074736;28;20590;-70
2021/06/05 01:30:06;;;;;;;12.15;5.50;;;17.40;99.90;;;18.26;69.23;101544.44;5058288;28;20291;-67
2021/06/05 01:32:34;;;;;;;13.43;6.53;;;17.40;99.90;;;18.25;69.11;101548.88;5075616;28;20176;-70
2021/06/05 01:35:01;;;;;;;12.10;5.80;;;17.40;99.90;;;18.24;69.05;101554.25;5075428;28;20264;-68
2021/06/05 01:37:28;;;;;;;11.52;5.80;;;17.40;99.90;;;18.23;69.01;101544.59;5076189;28;20185;-68
2021/06/05 01:40:06;;;;;;;12.25;5.93;;;17.40;99.90;;;18.24;68.98;101551.59;5056397;28;20282;-69
2021/06/05 01:42:40;;;;;;;12.40;6.10;;;17.40;99.90;;;18.24;69.15;101549.81;5075430;28;20210;-69
2021/06/05 01:45:15;;;;;;;13.63;6.10;;;17.40;99.90;;;18.24;69.10;101546.31;5058175;28;20212;-69
2021/06/05 01:47:42;;;;;;;14.65;5.85;;;17.40;99.90;;;18.21;69.05;101543.81;5074596;28;20196;-69
2021/06/05 01:50:15;;;;;;;13.18;5.78;;;17.40;99.90;;;18.19;68.88;101538.63;5057575;28;20374;-67
2021/06/05 01:52:43;;;;;;;11.30;5.70;;;17.40;99.90;;;18.20;68.77;101537.66;5057506;28;20192;-69
2021/06/05 01:55:18;;;;;;;13.90;5.65;;;17.40;99.90;;;18.22;68.83;101540.25;5057144;28;20587;-68
2021/06/05 01:57:54;;;;;;;12.75;5.65;;;17.40;99.90;;;18.20;68.83;101532.38;5057345;28;20710;-68
2021/06/05 02:00:35;;;;;;;14.18;6.50;;;17.40;99.90;;;18.18;68.79;101542.22;5075781;28;20184;-68
2021/06/05 02:03:05;;;;;;;14.35;6.30;;;17.40;99.90;;;18.16;68.81;101543.22;5074846;28;20192;-68
2021/06/05 02:05:35;;;;;;;11.45;5.47;;;17.40;99.90;;;18.15;68.71;101537.06;5057743;28;20274;-68
2021/06/05 02:08:07;;;;;;;11.77;6.05;;;17.40;99.90;;;18.14;68.71;101535.38;5075017;28;20224;-67
2021/06/05 02:10:36;;;;;;;11.90;5.88;;;17.30;99.90;;;18.15;68.62;101531.75;5057518;28;20208;-70
2021/06/05 02:13:16;;;;;;;12.07;5.95;;;17.30;99.90;;;18.15;68.82;101518.50;5077034;28;20176;-68
2021/06/05 02:16:17;;;;;;;13.25;6.35;;;17.30;99.90;;;18.15;68.46;101517.69;5058336;28;20212;-69
2021/06/05 02:18:52;;;;;;;12.45;6.22;;;17.30;99.90;;;18.12;68.45;101513.38;5057532;28;20192;-68
2021/06/05 02:21:30;;;;;;;12.88;6.32;;;17.30;99.90;;;18.09;68.76;101510.91;5056789;28;20200;-69
2021/06/05 02:24:05;;;;;;;12.40;5.80;;;17.30;99.90;;;18.07;68.95;101519.91;5073656;28;20188;-68
2021/06/05 02:26:39;;;;;;;12.40;6.20;;;17.20;99.90;;;18.02;69.06;101522.78;5056892;28;20203;-68
2021/06/05 02:29:12;;;;;;;11.70;6.45;;;17.20;99.90;;;17.99;69.11;101516.81;5056845;28;20192;-70
2021/06/05 02:31:41;;;;;;;13.15;6.15;;;17.20;99.90;;;17.98;69.10;101517.75;5074174;28;20207;-68
2021/06/05 02:34:13;;;;;;;12.68;5.68;;;17.20;99.90;;;17.97;69.23;101516.03;5074140;28;20196;-68
2021/06/05 02:36:43;;;;;;;11.55;5.85;;;17.20;99.90;;;17.96;69.29;101517.84;5056928;28;20235;-68
2021/06/05 02:39:13;;;;;;;11.52;5.90;;;17.10;99.90;;;17.96;69.14;101519.63;5075016;28;20281;-68
2021/06/05 02:41:44;;;;;;;12.70;6.50;;;17.20;99.90;;;17.95;69.13;101521.41;5057049;28;20197;-68
2021/06/05 02:44:15;;;;;;;12.48;6.57;;;17.10;99.90;;;17.95;69.29;101516.13;5055916;28;20185;-67
2021/06/05 02:46:44;;;;;;;10.63;5.50;;;17.10;99.90;;;17.94;69.02;101514.41;5074923;28;20707;-67
2021/06/05 02:49:27;;;;;;;13.50;6.25;;;17.10;99.90;;;17.94;69.08;101508.25;5057369;28;20192;-67
2021/06/05 02:51:58;;;;;;;14.00;5.90;;;17.10;99.90;;;17.91;69.09;101511.94;5056961;28;20230;-68
2021/06/05 02:54:29;;;;;;;11.40;5.88;;;17.00;99.90;;;17.89;69.40;101507.66;5057753;28;20191;-68
2021/06/05 02:56:58;;;;;;;11.52;5.75;;;17.00;99.90;;;17.85;69.39;101509.63;5074558;28;20212;-67
2021/06/05 02:59:26;;;;;;;11.77;6.10;;;17.00;99.90;;;17.85;69.48;101514.06;5058508;28;20214;-68
2021/06/05 03:01:55;;;;;;;14.98;6.15;;;17.00;99.90;;;17.85;69.61;101508.78;5076251;28;20184;-68
2021/06/05 03:04:24;;;;;;;11.50;5.50;;;17.00;99.90;;;17.83;69.27;101521.25;5057691;28;20189;-68
2021/06/05 03:06:53;;;;;;;12.15;5.68;;;17.00;99.90;;;17.81;69.56;101505.44;5075674;28;20199;-68
2021/06/05 03:09:21;;;;;;;12.00;6.43;;;17.00;99.90;;;17.81;69.62;101512.53;5074993;28;20176;-67
2021/06/05 03:11:51;;;;;;;12.35;6.57;;;16.90;99.90;;;17.81;69.54;101512.53;5057225;28;20227;-68
2021/06/05 03:14:18;;;;;;;12.10;6.07;;;17.00;99.90;;;17.81;69.31;101512.53;5037835;28;20200;-68
2021/06/05 03:16:48;;;;;;;12.02;5.78;;;16.90;99.90;;;17.81;69.39;101517.81;5037861;28;20301;-67
2021/06/05 03:19:18;;;;;;;13.15;6.22;;;16.90;99.90;;;17.79;69.28;101512.59;5056225;28;20197;-67
2021/06/05 03:21:46;;;;;;;12.27;6.45;;;17.00;99.90;;;17.79;69.52;101524.97;5054655;28;20197;-68
2021/06/05 03:24:20;;;;;;;13.57;6.03;;;17.00;99.90;;;17.76;69.77;101519.88;5055833;28;20207;-68
2021/06/05 03:26:48;;;;;;;13.25;6.30;;;17.00;99.90;;;17.75;69.84;101512.88;5038194;28;20270;-69
2021/06/05 03:29:15;;;;;;;16.13;6.53;;;17.00;99.90;;;17.74;69.64;101522.59;5038019;28;20189;-68
2021/06/05 03:31:50;;;;;;;14.10;6.75;;;17.00;99.90;;;17.75;70.03;101516.34;5038178;28;20250;-68
2021/06/05 03:34:17;;;;;;;13.65;6.38;;;16.90;99.90;;;17.76;69.61;101515.44;5058064;28;20195;-68
2021/06/05 03:36:44;;;;;;;11.88;6.28;;;17.00;99.90;;;17.77;69.48;101516.25;5075655;28;20226;-68
2021/06/05 03:39:11;;;;;;;12.18;6.22;;;17.00;99.90;;;17.77;69.66;101511.84;5075130;28;20188;-68
2021/06/05 03:41:44;;;;;;;11.43;6.28;;;17.00;99.90;;;17.78;69.65;101502.97;5057920;28;20290;-69
2021/06/05 03:44:12;;;;;;;12.60;6.03;;;17.00;99.90;;;17.80;69.70;101506.34;5058114;28;20218;-69
2021/06/05 03:46:39;;;;;;;13.02;6.10;;;17.00;99.90;;;17.81;69.41;101504.56;5075089;28;20216;-69
2021/06/05 03:49:09;;;;;;;12.38;6.03;;;17.00;99.90;;;17.82;69.43;101501.84;5075549;28;20207;-67
2021/06/05 03:51:36;;;;;;;13.50;5.80;;;17.00;99.90;;;17.83;69.32;101500.91;5072827;28;20423;-69
2021/06/05 03:54:06;;;;;;;13.75;6.95;;;17.10;99.90;;;17.86;69.43;101498.09;5073792;28;20195;-69
2021/06/05 03:56:34;;;;;;;12.23;5.88;;;17.10;99.90;;;17.90;69.31;101502.28;5057663;28;20212;-68
2021/06/05 03:59:01;;;;;;;12.32;6.00;;;17.10;99.90;;;17.91;69.15;101505.78;5076900;28;20188;-69
2021/06/05 04:01:30;;;;;;;14.23;6.28;;;17.20;99.90;;;17.92;69.05;101500.41;5076419;28;20249;-68
2021/06/05 04:03:58;;;;;;;13.13;5.95;;;17.20;99.90;;;17.95;69.17;101512.63;5078276;28;20215;-69
2021/06/05 04:06:28;;;;;;;12.27;5.75;;;17.20;99.90;;;17.98;68.64;101502.72;5080091;28;20700;-68
2021/06/05 04:08:58;;;;;;;10.40;5.55;;;17.20;99.90;;;18.01;68.67;101499.03;5061919;28;20207;-70
2021/06/05 04:11:27;;;;;;;10.13;5.07;;;17.30;99.90;;;18.07;68.41;101506.66;5077841;28;20242;-68
2021/06/05 04:13:54;;;;;;;12.68;5.80;;;17.40;99.90;;;18.11;68.32;101505.53;5077554;28;20195;-68
2021/06/05 04:16:22;;;;;;;12.75;5.45;;;17.50;99.90;;;18.18;68.07;101509.56;5078915;28;20237;-68
2021/06/05 04:18:49;;;;;;;10.10;4.95;;;17.50;99.90;;;18.25;67.54;101516.22;5079775;28;20195;-68
2021/06/05 04:21:20;;;;;;;13.20;5.35;;;17.60;99.90;;;18.30;67.53;101511.53;5080416;28;20196;-70
2021/06/05 04:23:48;;;;;;;12.32;5.35;;;17.60;99.90;;;18.35;66.92;101504.16;5081051;28;20218;-68
2021/06/05 04:26:15;;;;;;;11.18;5.28;;;17.70;99.90;;;18.39;67.23;101508.31;5080804;28;20196;-68
2021/06/05 04:28:42;;;;;;;10.57;4.80;;;17.70;99.90;;;18.43;67.06;101512.56;5080981;28;20188;-68
2021/06/05 04:31:10;;;;;;;11.07;5.57;;;17.80;99.90;;;18.49;66.44;101512.19;5080840;28;20685;-68
2021/06/05 04:33:38;;;;;;;9.98;4.93;;;17.90;99.90;;;18.55;66.19;101514.50;5080563;28;20192;-66
2021/06/05 04:36:09;;;;;;;10.57;4.88;;;17.90;99.90;;;18.59;65.75;101508.94;5079233;28;20216;-69
2021/06/05 04:38:37;;;;;;;11.48;4.40;;;18.00;99.90;;;18.63;65.14;101509.63;5079917;28;20196;-67
2021/06/05 04:41:07;;;;;;;11.40;5.25;;;18.10;99.90;;;18.68;65.15;101507.56;5061852;28;20199;-68
2021/06/05 04:43:34;;;;;;;10.18;4.97;;;18.10;99.90;;;18.72;64.79;101499.31;5062315;28;20194;-67
2021/06/05 04:46:01;;;;;;;12.23;5.15;;;18.20;99.90;;;18.79;64.56;101509.59;5080051;28;20208;-68
2021/06/05 04:48:28;;;;;;;10.57;4.80;;;18.20;99.90;;;18.83;64.38;101506.66;5079708;28;20198;-70
2021/06/05 04:50:54;;;;;;;10.07;4.50;;;18.30;99.90;;;18.87;64.36;101513.50;5078159;28;20216;-68
2021/06/05 04:53:23;;;;;;;14.02;6.55;;;18.40;99.90;;;18.91;64.24;101517.66;5077809;28;20192;-68
2021/06/05 04:55:50;;;;;;;10.82;4.88;;;18.40;99.90;;;18.97;64.07;101519.09;5077655;28;20722;-68
2021/06/05 04:58:19;;;;;;;9.48;4.30;;;18.50;99.90;;;19.01;64.11;101516.16;5059600;28;20637;-69
2021/06/05 05:00:49;;;;;;;10.73;4.43;;;18.50;99.90;;;19.04;64.11;101515.97;5077027;28;20213;-68
2021/06/05 05:03:20;;;;;;;10.20;4.25;;;18.60;99.90;;;19.09;63.73;101513.06;5077606;28;20207;-69
2021/06/05 05:05:47;;;;;;;10.65;4.72;;;18.60;99.90;;;19.14;63.34;101517.13;5077602;28;20208;-67
2021/06/05 05:08:19;;;;;;;9.60;4.60;;;18.60;99.90;;;19.20;63.27;101522.09;5076883;28;20657;-68
2021/06/05 05:10:51;;;;;;;9.40;4.50;;;18.80;99.90;;;19.24;63.00;101514.81;5054245;28;20321;-68
2021/06/05 05:13:23;;;;;;;11.23;4.30;;;18.80;99.90;;;19.30;62.41;101517.97;5050303;28;20552;-68
2021/06/05 05:15:50;;;;;;;10.50;4.13;;;18.90;99.90;;;19.37;62.48;101511.34;5075187;28;20242;-67
2021/06/05 05:18:17;;;;;;;10.48;4.13;;;18.90;99.90;;;19.44;62.24;101510.00;5075324;28;20196;-69
2021/06/05 05:20:45;;;;;;;10.38;4.47;;;19.00;99.90;;;19.51;62.01;101516.66;5058776;28;20204;-68
2021/06/05 05:23:13;;;;;;;10.27;4.22;;;19.10;99.90;;;19.55;61.87;101512.88;5076047;28;20562;-68
2021/06/05 05:25:42;;;;;;;10.02;4.45;;;19.20;99.90;;;19.61;61.64;101508.97;5074681;28;20208;-68
2021/06/05 05:28:09;;;;;;;12.68;4.55;;;19.30;99.90;;;19.67;61.64;101517.44;5076139;28;20189;-69
2021/06/05 05:30:43;;;;;;;9.43;4.25;;;19.30;99.90;;;19.75;61.15;101509.81;5075835;28;20686;-69
2021/06/05 05:33:12;;;;;;;9.48;3.85;;;19.40;99.90;;;19.80;61.13;101507.72;5076653;28;20230;-69
2021/06/05 05:35:39;;;;;;;9.48;4.10;;;19.50;99.90;;;19.83;61.26;101510.19;5054780;28;20209;-68
2021/06/05 05:38:09;;;;;;;8.82;3.55;;;19.50;99.90;;;19.90;60.63;101508.88;5075427;28;20671;-68
2021/06/05 05:40:38;;;;;;;9.35;3.80;;;19.60;99.90;;;19.96;60.54;101518.22;5059465;28;20226;-68
2021/06/05 05:43:05;;;;;;;8.38;3.78;;;19.70;99.90;;;20.04;60.66;101515.09;5076918;28;20188;-71
2021/06/05 05:45:31;;;;;;;9.20;3.42;;;19.80;99.90;;;20.12;60.38;101523.44;5076614;28;20254;-69
2021/06/05 05:48:04;;;;;;;11.32;3.95;;;19.90;99.90;;;20.19;59.86;101519.47;5075953;28;20199;-68
2021/06/05 05:50:34;;;;;;;10.30;4.60;;;20.00;99.90;;;20.29;59.24;101525.91;5073693;28;20326;-68
2021/06/05 05:53:01;;;;;;;9.40;3.97;;;20.10;99.90;;;20.37;59.09;101524.44;5075603;28;20184;-69
2021/06/05 05:55:29;;;;;;;9.23;3.80;;;20.20;99.90;;;20.44;59.22;101519.59;5073954;28;20216;-68
2021/06/05 05:58:01;;;;;;;10.32;3.53;;;20.40;99.90;;;20.49;59.04;101525.44;5057205;28;20196;-68
2021/06/05 06:00:32;;;;;;;9.13;3.90;;;20.50;99.90;;;20.54;58.91;101528.66;5074949;28;20271;-69
2021/06/05 06:02:59;;;;;;;9.05;4.20;;;20.50;99.90;;;20.56;59.22;101524.09;5056781;28;20196;-68
2021/06/05 06:05:25;;;;;;;8.82;3.80;;;20.50;99.90;;;20.60;59.16;101520.28;5053101;28;20705;-69
2021/06/05 06:07:52;;;;;;;9.77;3.65;;;20.60;99.90;;;20.64;58.42;101527.97;5053003;28;20199;-68
2021/06/05 06:10:22;;;;;;;10.82;3.80;;;20.60;99.90;;;20.73;58.08;101527.34;5056132;28;20195;-66
2021/06/05 06:12:49;;;;;;;9.25;3.65;;;20.70;99.90;;;20.79;57.90;101534.94;5074284;28;20653;-67
2021/06/05 06:15:23;;;;;;;10.07;3.92;;;20.80;99.90;;;20.86;57.58;101525.59;5064440;28;20216;-68
2021/06/05 06:17:51;;;;;;;8.68;3.60;;;20.80;99.90;;;20.92;57.42;101526.97;5074709;28;20192;-69
2021/06/05 06:20:24;;;;;;;9.32;3.65;;;20.90;99.90;;;20.99;57.12;101530.97;5056431;28;20244;-65
2021/06/05 06:22:52;;;;;;;9.98;3.80;;;20.90;99.90;;;21.05;57.14;101526.06;5074449;28;20195;-68
2021/06/05 06:25:21;;;;;;;7.95;3.70;;;21.00;99.90;;;21.12;56.73;101523.84;5073932;28;20204;-68
2021/06/05 06:27:49;;;;;;;9.27;4.03;;;21.10;99.90;;;21.20;56.41;101526.81;5073714;28;20184;-68
2021/06/05 06:30:22;;;;;;;7.68;3.35;;;21.20;99.90;;;21.27;55.68;101522.78;5073572;28;20317;-66
2021/06/05 06:32:52;;;;;;;8.20;3.60;;;21.30;99.90;;;21.34;55.88;101520.56;5073804;28;20216;-68
2021/06/05 06:35:21;;;;;;;7.35;3.22;;;21.40;99.90;;;21.44;55.13;101526.94;5073913;28;20226;-68
2021/06/05 06:37:47;;;;;;;8.07;3.55;;;21.40;99.90;;;21.53;54.86;101532.50;5056291;28;20219;-68
2021/06/05 06:40:15;;;;;;;10.45;3.65;;;21.50;99.90;;;21.60;54.94;101536.41;5074166;28;20192;-66
2021/06/05 06:42:41;;;;;;;8.73;3.75;;;21.60;99.90;;;21.66;54.86;101530.69;5072669;28;20299;-69
2021/06/05 06:45:10;;;;;;;7.75;3.40;;;21.70;99.90;;;21.75;54.51;101530.00;5073737;28;20680;-68
2021/06/05 06:47:37;;;;;;;16.27;3.72;;;21.80;99.90;;;21.85;54.35;101535.59;5073679;28;20184;-68
2021/06/05 06:50:05;;;;;;;8.52;3.40;;;21.90;99.90;;;21.91;54.45;101538.69;5073712;28;20565;-70
2021/06/05 06:52:33;;;;;;;8.15;3.47;;;21.90;99.90;;;21.97;54.60;101538.22;5073641;28;20251;-68
2021/06/05 06:55:00;;;;;;;8.80;3.78;;;22.10;99.90;;;22.02;54.25;101536.09;5073819;28;20818;-69
2021/06/05 06:57:27;;;;;;;9.07;3.88;;;22.10;99.90;;;22.06;54.03;101524.25;5074128;28;20798;-68
2021/06/05 06:59:53;;;;;;;8.50;3.67;;;22.20;99.90;;;22.12;54.14;101526.47;5072568;28;20695;-67
2021/06/05 07:02:20;;;;;;;8.43;3.80;;;22.20;99.90;;;22.20;53.74;101525.91;5073217;28;20191;-70
2021/06/05 07:04:46;;;;;;;8.88;3.70;;;22.30;99.90;;;22.28;54.03;101535.06;5073907;28;20181;-69
2021/06/05 07:07:13;;;;;;;9.23;3.75;;;22.50;99.90;;;22.42;53.47;101532.22;5073585;28;20711;-70
2021/06/05 07:09:40;;;;;;;7.95;3.40;;;22.60;99.90;;;22.55;53.24;101524.22;5074041;28;20184;-68
2021/06/05 07:12:08;;;;;;;8.75;3.85;;;22.90;99.90;;;22.66;53.53;101520.72;5073907;28;20215;-68
2021/06/05 07:14:35;;;;;;;10.13;3.72;;;23.20;99.90;;;22.72;53.31;101523.81;5073314;28;20619;-68
2021/06/05 07:17:01;;;;;;;7.82;3.63;;;23.50;99.90;;;22.76;53.47;101516.38;5074300;28;20253;-68
2021/06/05 07:19:28;;;;;;;8.73;3.83;;;23.70;99.90;;;22.86;53.57;101522.75;5073411;28;20192;-68
2021/06/05 07:21:54;;;;;;;9.35;3.90;;;24.00;99.90;;;22.97;53.17;101521.00;5075179;28;20195;-69
2021/06/05 07:24:20;;;;;;;10.05;4.28;;;24.30;99.90;;;23.06;53.29;101530.94;5074606;28;20184;-68
2021/06/05 07:26:48;;;;;;;9.68;4.05;;;24.30;99.90;;;23.08;52.56;101521.00;5074431;28;20212;-68
2021/06/05 07:29:15;;;;;;;12.27;4.10;;;24.10;99.90;;;23.12;52.31;101526.97;5057947;28;20601;-69
2021/06/05 07:31:47;;;;;;;9.60;3.88;;;24.00;99.90;;;23.16;52.46;101528.44;5075614;28;20207;-68
2021/06/05 07:34:14;;;;;;;8.95;3.40;;;23.80;99.90;;;23.17;52.27;101524.78;5073990;28;20326;-68
2021/06/05 07:36:45;;;;;;;11.10;3.70;;;23.70;99.90;;;23.24;52.13;101528.72;5074912;28;20215;-68
2021/06/05 07:39:15;;;;;;;8.30;3.78;;;23.60;99.90;;;23.30;52.21;101525.59;5073688;28;20196;-69
2021/06/05 07:41:43;;;;;;;10.15;3.85;;;23.60;99.90;;;23.36;51.90;101525.13;5057062;28;20192;-68
2021/06/05 07:44:12;;;;;;;9.23;3.17;;;23.70;99.90;;;23.42;51.50;101530.84;5075982;28;20196;-68
2021/06/05 07:46:41;;;;;;;9.10;3.38;;;23.70;99.90;;;23.49;51.20;101529.38;5075412;28;20468;-69
2021/06/05 07:49:07;;;;;;;9.45;3.75;;;23.80;99.90;;;23.54;50.20;101531.69;5075433;28;20188;-68
2021/06/05 07:51:34;;;;;;;7.97;3.28;;;23.90;99.90;;;23.64;49.61;101524.66;5075150;28;20220;-69
2021/06/05 07:54:00;;;;;;;8.88;3.45;;;23.90;99.90;;;23.76;49.61;101526.38;5074370;28;20192;-70
2021/06/05 07:56:27;;;;;;;8.88;3.83;;;24.10;99.90;;;23.87;49.79;101520.16;5056091;28;20212;-68
2021/06/05 07:58:53;;;;;;;10.65;4.35;;;24.20;99.90;;;23.99;49.32;101520.06;5054910;28;20192;-68
2021/06/05 08:01:22;;;;;;;10.13;3.67;;;24.30;99.90;;;24.09;48.62;101510.31;5072391;28;20191;-68
2021/06/05 08:03:49;;;;;;;8.30;3.33;;;24.50;99.20;;;24.12;48.26;101510.06;5073699;28;20266;-68
2021/06/05 08:06:15;;;;;;;10.38;3.75;;;24.50;98.30;;;24.16;47.65;101511.53;5073522;28;20207;-68
2021/06/05 08:08:42;;;;;;;8.30;3.15;;;24.60;97.70;;;24.18;47.35;101514.91;5072148;28;20195;-68
2021/06/05 08:11:08;;;;;;;8.90;3.78;;;24.50;97.40;;;24.23;47.48;101507.34;5073014;28;20253;-67
2021/06/05 08:13:35;;;;;;;9.48;3.17;;;24.50;97.40;;;24.30;47.77;101503.19;5073099;28;20188;-69
2021/06/05 08:16:01;;;;;;;7.20;3.03;;;24.60;97.60;;;24.39;47.75;101497.09;5054295;28;20262;-68
2021/06/05 08:18:29;;;;;;;7.95;3.03;;;24.70;97.40;;;24.49;47.23;101492.69;5072519;28;20282;-68
2021/06/05 08:20:59;;;;;;;8.65;3.42;;;24.80;97.20;;;24.59;47.73;101504.34;5073269;28;20195;-68
2021/06/05 08:23:30;;;;;;;8.40;3.33;;;25.00;97.50;;;24.70;47.26;101501.63;5073671;28;20191;-69
2021/06/05 08:25:58;;;;;;;9.30;3.58;;;25.00;96.90;;;24.78;47.02;101501.00;5072122;28;20208;-69
2021/06/05 08:28:26;;;;;;;9.43;3.50;;;25.20;96.40;;;24.80;46.87;101499.03;5073596;28;20187;-71
2021/06/05 08:30:57;;;;;;;8.55;3.72;;;25.20;96.00;;;24.81;46.27;101497.19;5073250;28;20188;-68
2021/06/05 08:33:24;;;;;;;7.50;3.00;;;25.20;95.50;;;24.79;46.58;101500.00;5055351;28;20188;-68
2021/06/05 08:35:52;;;;;;;9.88;4.25;;;25.20;95.30;;;24.81;46.24;101492.69;5054559;28;20273;-68
2021/06/05 08:38:24;;;;;;;8.68;3.40;;;25.20;95.10;;;24.83;46.14;101489.88;5072792;28;20188;-69
2021/06/05 08:40:58;;;;;;;9.20;3.65;;;25.20;95.10;;;24.84;45.84;101492.44;5071336;28;20196;-69
2021/06/05 08:43:31;;;;;;;8.15;3.63;;;25.10;94.80;;;24.88;45.77;101493.03;5071643;28;20202;-69
2021/06/05 08:46:01;;;;;;;8.30;3.40;;;25.20;94.60;;;24.91;45.72;101493.63;5072532;28;20602;-69
2021/06/05 08:48:28;;;;;;;7.47;3.20;;;25.20;94.40;;;24.97;45.93;101486.91;5063015;28;20283;-68
2021/06/05 08:51:10;;;;;;;8.48;3.65;;;25.20;94.30;;;25.09;45.90;101485.81;5075207;28;20192;-68
2021/06/05 08:53:37;;;;;;;8.32;3.50;;;25.40;94.00;;;25.09;45.11;101488.50;5058879;28;20555;-68
2021/06/05 08:56:12;;;;;;;7.47;3.35;;;25.40;93.70;;;25.20;45.21;101491.97;5077230;28;20210;-67
2021/06/05 08:58:44;;;;;;;6.93;2.65;;;25.50;93.70;;;25.32;44.98;101492.75;5077746;28;20183;-68
2021/06/05 09:01:17;;;;;;;6.72;2.90;;;25.60;93.70;;;25.42;45.05;101491.03;5077461;28;20262;-68
2021/06/05 09:03:48;;;;;;;9.52;3.88;;;25.80;93.30;;;25.48;44.59;101490.47;5076007;28;20188;-68
2021/06/05 09:06:22;;;;;;;10.07;3.72;;;25.90;93.00;;;25.52;45.13;101494.59;5057997;28;20216;-68
2021/06/05 09:08:48;;;;;;;8.38;3.70;;;25.90;92.90;;;25.53;44.68;101493.59;5075954;28;20211;-68
2021/06/05 09:11:17;;;;;;;11.00;3.80;;;25.90;92.60;;;25.53;44.31;101491.78;5075391;28;20203;-69
2021/06/05 09:13:44;;;;;;;9.98;4.00;;;25.90;92.50;;;25.59;44.65;101501.09;5057669;28;20238;-69
2021/06/05 09:16:39;;;;;;;9.15;3.47;;;26.00;92.20;;;25.63;44.31;101497.19;5075543;28;20203;-69
2021/06/05 09:19:21;;;;;;;9.13;4.03;;;26.00;92.10;;;25.63;44.25;101497.19;5074910;28;20207;-69
2021/06/05 09:21:57;;;;;;;9.55;4.50;;;26.00;92.10;;;25.61;44.51;101489.25;5075726;28;20270;-69
2021/06/05 09:24:30;;;;;;;9.13;3.75;;;26.00;92.20;;;25.63;44.77;101498.03;5076135;28;20183;-68
2021/06/05 09:27:10;;;;;;;10.55;3.55;;;26.00;92.10;;;25.66;44.35;101491.53;5076587;28;20196;-71
2021/06/05 09:29:49;;;;;;;11.55;3.90;;;26.00;92.10;;;25.70;44.58;101493.84;5076863;28;20184;-69
2021/06/05 09:32:19;;;;;;;8.13;3.20;;;26.00;92.20;;;25.78;44.52;101493.13;5075882;28;20213;-70
2021/06/05 09:34:55;;;;;;;9.45;3.55;;;26.10;92.10;;;25.82;44.69;101494.59;5076311;28;20191;-70
2021/06/05 09:37:35;;;;;;;8.80;3.85;;;26.10;92.00;;;25.86;44.22;101487.94;5075353;28;20197;-68
2021/06/05 09:40:22;;;;;;;17.67;8.73;;;26.20;91.70;;;25.83;44.34;101485.53;5074483;28;20191;-69
2021/06/05 09:42:52;;;;;;;10.07;4.70;;;26.20;91.70;;;25.86;45.02;101487.94;5074895;28;20195;-70
2021/06/05 09:45:32;;;;;;;9.43;4.35;;;26.20;91.70;;;25.92;44.39;101488.22;5073585;28;20306;-69
2021/06/05 09:48:22;;;;;;;9.38;3.83;;;26.30;91.50;;;26.00;44.62;101476.81;5074782;28;20180;-70
2021/06/05 09:50:52;;;;;;;10.10;4.53;;;26.40;91.30;;;26.09;43.82;101480.56;5073680;28;20626;-68
2021/06/05 09:53:28;;;;;;;13.43;4.40;;;26.50;91.20;;;26.19;43.79;101478.75;5075235;28;20184;-68
2021/06/05 09:55:55;;;;;;;9.82;4.28;;;26.50;91.00;;;26.14;43.65;101475.63;5074026;28;20211;-69
2021/06/05 09:58:38;;;;;;;9.30;4.70;;;26.50;90.80;;;26.06;43.98;101473.63;5073161;28;20555;-69
2021/06/05 10:01:21;;;;;;;10.20;4.47;;;26.40;90.90;;;26.07;44.29;101478.03;5073838;28;20207;-68
2021/06/05 10:03:50;;;;;;;11.07;4.57;;;26.40;91.00;;;26.16;44.17;101485.22;5074907;28;20191;-69
2021/06/05 10:06:35;;;;;;;8.25;4.05;;;26.50;90.90;;;26.27;43.87;101482.44;5065749;28;20246;-71
2021/06/05 10:09:36;;;;;;;8.95;3.70;;;26.60;90.50;;;26.35;43.40;101462.91;5074056;28;20184;-69
2021/06/05 10:12:07;;;;;;;8.63;3.53;;;26.60;90.40;;;26.46;43.37;101460.94;5073687;28;20219;-69
2021/06/05 10:15:02;;;;;;;9.73;3.90;;;26.80;90.50;;;26.58;43.36;101459.81;5056172;28;20195;-67
2021/06/05 10:17:43;;;;;;;9.98;3.92;;;27.00;90.20;;;26.62;43.24;101458.56;5074379;28;20183;-69
2021/06/05 10:20:25;;;;;;;8.75;3.85;;;27.00;90.00;;;26.66;43.34;101459.16;5073879;28;20535;-68
2021/06/05 10:22:55;;;;;;;9.55;4.43;;;27.00;90.20;;;26.69;43.30;101450.81;5072787;28;20192;-68